sensor_id;sensor_type;location;lat;lon;timestamp;P1;durP1;ratioP1;P2;durP2;ratioP2
35977;SDS011;22056;0.000;0.000;2023-12-20T00:01:50;0.52;;;0.30;;
35977;SDS011;22056;0.000;0.000;2023-12-20T00:04:16;2.95;;;0.40;;
35977;SDS011;22056;0.000;0.000;2023-12-20T00:06:43;1.13;;;0.40;;
35977;SDS011;22056;0.000;0.000;2023-12-20T00:09:09;1.20;;;0.30;;
35977;SDS011;22056;0.000;0.000;2023-12-20T00:11:35;1.80;;;0.45;;
35977;SDS011;22056;0.000;0.000;2023-12-20T00:14:01;0.95;;;0.35;;
35977;SDS011;22056;0.000;0.000;2023-12-20T00:16:27;1.15;;;0.40;;
35977;SDS011;22056;0.000;0.000;2023-12-20T00:18:53;0.77;;;0.47;;
35977;SDS011;22056;0.000;0.000;2023-12-20T00:21:19;0.85;;;0.40;;
35977;SDS011;22056;0.000;0.000;2023-12-20T00:23:46;1.00;;;0.40;;
35977;SDS011;22056;0.000;0.000;2023-12-20T00:26:12;0.95;;;0.40;;
35977;SDS011;22056;0.000;0.000;2023-12-20T00:28:38;1.50;;;0.40;;
35977;SDS011;22056;0.000;0.000;2023-12-20T00:31:04;0.73;;;0.30;;
35977;SDS011;22056;0.000;0.000;2023-12-20T00:33:30;1.67;;;0.35;;
35977;SDS011;22056;0.000;0.000;2023-12-20T00:35:57;0.90;;;0.35;;
35977;SDS011;22056;0.000;0.000;2023-12-20T00:38:23;0.63;;;0.30;;
35977;SDS011;22056;0.000;0.000;2023-12-20T00:40:49;0.88;;;0.30;;
35977;SDS011;22056;0.000;0.000;2023-12-20T00:43:15;0.52;;;0.30;;
35977;SDS011;22056;0.000;0.000;2023-12-20T00:45:41;1.10;;;0.40;;
35977;SDS011;22056;0.000;0.000;2023-12-20T00:48:07;0.82;;;0.30;;
35977;SDS011;22056;0.000;0.000;2023-12-20T00:50:33;0.85;;;0.40;;
35977;SDS011;22056;0.000;0.000;2023-12-20T00:53:00;2.30;;;0.40;;
35977;SDS011;22056;0.000;0.000;2023-12-20T00:55:26;0.63;;;0.40;;
35977;SDS011;22056;0.000;0.000;2023-12-20T00:57:52;0.77;;;0.40;;
35977;SDS011;22056;0.000;0.000;2023-12-20T01:00:19;0.57;;;0.40;;
35977;SDS011;22056;0.000;0.000;2023-12-20T01:02:45;0.95;;;0.32;;
35977;SDS011;22056;0.000;0.000;2023-12-20T01:05:14;2.30;;;0.40;;
35977;SDS011;22056;0.000;0.000;2023-12-20T01:07:40;2.58;;;0.40;;
35977;SDS011;22056;0.000;0.000;2023-12-20T01:10:06;0.88;;;0.43;;
35977;SDS011;22056;0.000;0.000;2023-12-20T01:12:33;1.05;;;0.45;;
35977;SDS011;22056;0.000;0.000;2023-12-20T01:14:59;0.35;;;0.25;;
35977;SDS011;22056;0.000;0.000;2023-12-20T01:17:25;1.17;;;0.50;;
35977;SDS011;22056;0.000;0.000;2023-12-20T01:19:51;0.60;;;0.40;;
35977;SDS011;22056;0.000;0.000;2023-12-20T01:22:17;0.47;;;0.10;;
35977;SDS011;22056;0.000;0.000;2023-12-20T01:24:44;1.73;;;0.40;;
35977;SDS011;22056;0.000;0.000;2023-12-20T01:27:10;0.52;;;0.30;;
35977;SDS011;22056;0.000;0.000;2023-12-20T01:29:36;0.77;;;0.30;;
35977;SDS011;22056;0.000;0.000;2023-12-20T01:32:02;0.68;;;0.30;;
35977;SDS011;22056;0.000;0.000;2023-12-20T01:34:28;0.65;;;0.32;;
35977;SDS011;22056;0.000;0.000;2023-12-20T01:36:54;0.70;;;0.30;;
35977;SDS011;22056;0.000;0.000;2023-12-20T01:39:21;0.85;;;0.28;;
35977;SDS011;22056;0.000;0.000;2023-12-20T01:41:47;0.40;;;0.30;;
35977;SDS011;22056;0.000;0.000;2023-12-20T01:44:13;0.45;;;0.30;;
35977;SDS011;22056;0.000;0.000;2023-12-20T01:46:39;0.35;;;0.32;;
35977;SDS011;22056;0.000;0.000;2023-12-20T01:49:06;0.93;;;0.30;;
35977;SDS011;22056;0.000;0.000;2023-12-20T01:51:32;1.13;;;0.28;;
35977;SDS011;22056;0.000;0.000;2023-12-20T01:53:59;0.57;;;0.30;;
35977;SDS011;22056;0.000;0.000;2023-12-20T01:56:26;0.30;;;0.20;;
35977;SDS011;22056;0.000;0.000;2023-12-20T01:58:52;1.30;;;0.40;;
35977;SDS011;22056;0.000;0.000;2023-12-20T02:01:19;0.70;;;0.30;;
35977;SDS011;22056;0.000;0.000;2023-12-20T02:03:45;0.60;;;0.32;;
35977;SDS011;22056;0.000;0.000;2023-12-20T02:06:12;1.30;;;0.35;;
35977;SDS011;22056;0.000;0.000;2023-12-20T02:08:38;0.93;;;0.52;;
35977;SDS011;22056;0.000;0.000;2023-12-20T02:11:04;1.15;;;0.30;;
35977;SDS011;22056;0.000;0.000;2023-12-20T02:13:30;0.40;;;0.30;;
35977;SDS011;22056;0.000;0.000;2023-12-20T02:15:57;0.60;;;0.20;;
35977;SDS011;22056;0.000;0.000;2023-12-20T02:18:23;0.35;;;0.20;;
35977;SDS011;22056;0.000;0.000;2023-12-20T02:20:49;0.68;;;0.30;;
35977;SDS011;22056;0.000;0.000;2023-12-20T02:23:15;0.43;;;0.30;;
35977;SDS011;22056;0.000;0.000;2023-12-20T02:25:42;0.55;;;0.20;;
35977;SDS011;22056;0.000;0.000;2023-12-20T02:28:08;0.85;;;0.30;;
35977;SDS011;22056;0.000;0.000;2023-12-20T02:30:34;0.43;;;0.40;;
35977;SDS011;22056;0.000;0.000;2023-12-20T02:33:00;0.30;;;0.30;;
35977;SDS011;22056;0.000;0.000;2023-12-20T02:35:27;0.30;;;0.30;;
35977;SDS011;22056;0.000;0.000;2023-12-20T02:37:53;0.30;;;0.22;;
35977;SDS011;22056;0.000;0.000;2023-12-20T02:40:19;1.48;;;0.22;;
35977;SDS011;22056;0.000;0.000;2023-12-20T02:42:45;0.40;;;0.30;;
35977;SDS011;22056;0.000;0.000;2023-12-20T02:45:11;0.93;;;0.30;;
35977;SDS011;22056;0.000;0.000;2023-12-20T02:47:37;0.88;;;0.22;;
35977;SDS011;22056;0.000;0.000;2023-12-20T02:50:03;0.55;;;0.30;;
35977;SDS011;22056;0.000;0.000;2023-12-20T02:52:30;0.45;;;0.30;;
35977;SDS011;22056;0.000;0.000;2023-12-20T02:54:56;0.50;;;0.30;;
35977;SDS011;22056;0.000;0.000;2023-12-20T02:57:22;0.20;;;0.20;;
35977;SDS011;22056;0.000;0.000;2023-12-20T02:59:48;0.40;;;0.30;;
35977;SDS011;22056;0.000;0.000;2023-12-20T03:02:14;0.50;;;0.20;;
35977;SDS011;22056;0.000;0.000;2023-12-20T03:04:40;0.43;;;0.38;;
35977;SDS011;22056;0.000;0.000;2023-12-20T03:07:06;0.63;;;0.35;;
35977;SDS011;22056;0.000;0.000;2023-12-20T03:09:32;0.20;;;0.20;;
35977;SDS011;22056;0.000;0.000;2023-12-20T03:11:59;0.30;;;0.20;;
35977;SDS011;22056;0.000;0.000;2023-12-20T03:14:25;0.30;;;0.30;;
35977;SDS011;22056;0.000;0.000;2023-12-20T03:16:51;0.30;;;0.20;;
35977;SDS011;22056;0.000;0.000;2023-12-20T03:19:17;1.00;;;0.40;;
35977;SDS011;22056;0.000;0.000;2023-12-20T03:21:44;0.38;;;0.22;;
35977;SDS011;22056;0.000;0.000;2023-12-20T03:24:10;0.30;;;0.22;;
35977;SDS011;22056;0.000;0.000;2023-12-20T03:26:37;0.30;;;0.30;;
35977;SDS011;22056;0.000;0.000;2023-12-20T03:29:03;0.35;;;0.20;;
35977;SDS011;22056;0.000;0.000;2023-12-20T03:31:29;0.25;;;0.20;;
35977;SDS011;22056;0.000;0.000;2023-12-20T03:33:55;1.15;;;0.30;;
35977;SDS011;22056;0.000;0.000;2023-12-20T03:36:21;0.60;;;0.20;;
35977;SDS011;22056;0.000;0.000;2023-12-20T03:38:47;0.40;;;0.20;;
35977;SDS011;22056;0.000;0.000;2023-12-20T03:41:13;0.88;;;0.30;;
35977;SDS011;22056;0.000;0.000;2023-12-20T03:43:40;0.25;;;0.22;;
35977;SDS011;22056;0.000;0.000;2023-12-20T03:46:07;0.30;;;0.30;;
35977;SDS011;22056;0.000;0.000;2023-12-20T03:48:34;0.30;;;0.20;;
35977;SDS011;22056;0.000;0.000;2023-12-20T03:51:00;0.38;;;0.30;;
35977;SDS011;22056;0.000;0.000;2023-12-20T03:53:27;0.30;;;0.20;;
35977;SDS011;22056;0.000;0.000;2023-12-20T03:55:53;1.38;;;0.50;;
35977;SDS011;22056;0.000;0.000;2023-12-20T03:58:19;0.90;;;0.30;;
35977;SDS011;22056;0.000;0.000;2023-12-20T04:00:45;0.65;;;0.30;;
35977;SDS011;22056;0.000;0.000;2023-12-20T04:03:11;0.55;;;0.28;;
35977;SDS011;22056;0.000;0.000;2023-12-20T04:05:40;0.30;;;0.28;;
35977;SDS011;22056;0.000;0.000;2023-12-20T04:08:06;0.38;;;0.28;;
35977;SDS011;22056;0.000;0.000;2023-12-20T04:10:34;0.52;;;0.30;;
35977;SDS011;22056;0.000;0.000;2023-12-20T04:13:00;0.43;;;0.30;;
35977;SDS011;22056;0.000;0.000;2023-12-20T04:15:26;0.30;;;0.20;;
35977;SDS011;22056;0.000;0.000;2023-12-20T04:17:53;0.20;;;0.20;;
35977;SDS011;22056;0.000;0.000;2023-12-20T04:20:19;0.40;;;0.30;;
35977;SDS011;22056;0.000;0.000;2023-12-20T04:22:45;0.95;;;0.30;;
35977;SDS011;22056;0.000;0.000;2023-12-20T04:25:11;0.32;;;0.30;;
35977;SDS011;22056;0.000;0.000;2023-12-20T04:27:37;0.30;;;0.20;;
35977;SDS011;22056;0.000;0.000;2023-12-20T04:30:03;0.45;;;0.35;;
35977;SDS011;22056;0.000;0.000;2023-12-20T04:32:30;0.63;;;0.30;;
35977;SDS011;22056;0.000;0.000;2023-12-20T04:34:56;0.40;;;0.28;;
35977;SDS011;22056;0.000;0.000;2023-12-20T04:37:22;0.50;;;0.40;;
35977;SDS011;22056;0.000;0.000;2023-12-20T04:39:49;0.65;;;0.30;;
35977;SDS011;22056;0.000;0.000;2023-12-20T04:42:15;0.40;;;0.25;;
35977;SDS011;22056;0.000;0.000;2023-12-20T04:44:41;0.60;;;0.40;;
35977;SDS011;22056;0.000;0.000;2023-12-20T04:47:09;0.30;;;0.30;;
35977;SDS011;22056;0.000;0.000;2023-12-20T04:49:35;0.28;;;0.20;;
35977;SDS011;22056;0.000;0.000;2023-12-20T04:52:01;0.20;;;0.20;;
35977;SDS011;22056;0.000;0.000;2023-12-20T04:54:27;1.02;;;0.30;;
35977;SDS011;22056;0.000;0.000;2023-12-20T04:56:53;0.55;;;0.30;;
35977;SDS011;22056;0.000;0.000;2023-12-20T04:59:19;1.15;;;0.30;;
35977;SDS011;22056;0.000;0.000;2023-12-20T05:01:45;0.50;;;0.30;;
35977;SDS011;22056;0.000;0.000;2023-12-20T05:04:11;0.20;;;0.20;;
35977;SDS011;22056;0.000;0.000;2023-12-20T05:06:38;0.85;;;0.30;;
35977;SDS011;22056;0.000;0.000;2023-12-20T05:09:04;0.35;;;0.30;;
35977;SDS011;22056;0.000;0.000;2023-12-20T05:11:30;0.30;;;0.30;;
35977;SDS011;22056;0.000;0.000;2023-12-20T05:13:56;0.40;;;0.20;;
35977;SDS011;22056;0.000;0.000;2023-12-20T05:16:22;0.75;;;0.22;;
35977;SDS011;22056;0.000;0.000;2023-12-20T05:18:48;0.20;;;0.20;;
35977;SDS011;22056;0.000;0.000;2023-12-20T05:21:15;0.88;;;0.30;;
35977;SDS011;22056;0.000;0.000;2023-12-20T05:23:41;0.60;;;0.22;;
35977;SDS011;22056;0.000;0.000;2023-12-20T05:26:08;1.08;;;0.30;;
35977;SDS011;22056;0.000;0.000;2023-12-20T05:28:34;0.85;;;0.30;;
35977;SDS011;22056;0.000;0.000;2023-12-20T05:31:00;0.40;;;0.35;;
35977;SDS011;22056;0.000;0.000;2023-12-20T05:33:26;0.68;;;0.38;;
35977;SDS011;22056;0.000;0.000;2023-12-20T05:35:53;2.85;;;0.43;;
35977;SDS011;22056;0.000;0.000;2023-12-20T05:38:19;0.60;;;0.40;;
35977;SDS011;22056;0.000;0.000;2023-12-20T05:40:45;0.70;;;0.30;;
35977;SDS011;22056;0.000;0.000;2023-12-20T05:43:11;0.60;;;0.30;;
35977;SDS011;22056;0.000;0.000;2023-12-20T05:45:37;0.70;;;0.30;;
35977;SDS011;22056;0.000;0.000;2023-12-20T05:48:03;0.70;;;0.30;;
35977;SDS011;22056;0.000;0.000;2023-12-20T05:50:30;1.45;;;0.40;;
35977;SDS011;22056;0.000;0.000;2023-12-20T05:52:56;0.63;;;0.30;;
35977;SDS011;22056;0.000;0.000;2023-12-20T05:55:22;0.55;;;0.30;;
35977;SDS011;22056;0.000;0.000;2023-12-20T05:57:48;1.35;;;0.32;;
35977;SDS011;22056;0.000;0.000;2023-12-20T06:00:15;1.15;;;0.45;;
35977;SDS011;22056;0.000;0.000;2023-12-20T06:02:41;1.20;;;0.40;;
35977;SDS011;22056;0.000;0.000;2023-12-20T06:05:07;1.45;;;0.50;;
35977;SDS011;22056;0.000;0.000;2023-12-20T06:07:33;1.20;;;0.32;;
35977;SDS011;22056;0.000;0.000;2023-12-20T06:09:59;0.85;;;0.30;;
35977;SDS011;22056;0.000;0.000;2023-12-20T06:12:25;0.68;;;0.50;;
35977;SDS011;22056;0.000;0.000;2023-12-20T06:14:53;0.68;;;0.40;;
35977;SDS011;22056;0.000;0.000;2023-12-20T06:17:20;1.30;;;0.30;;
35977;SDS011;22056;0.000;0.000;2023-12-20T06:19:46;1.55;;;0.45;;
35977;SDS011;22056;0.000;0.000;2023-12-20T06:22:13;1.98;;;0.40;;
35977;SDS011;22056;0.000;0.000;2023-12-20T06:24:39;0.43;;;0.30;;
35977;SDS011;22056;0.000;0.000;2023-12-20T06:27:05;0.50;;;0.25;;
35977;SDS011;22056;0.000;0.000;2023-12-20T06:29:32;0.77;;;0.40;;
35977;SDS011;22056;0.000;0.000;2023-12-20T06:31:59;0.75;;;0.38;;
35977;SDS011;22056;0.000;0.000;2023-12-20T06:34:26;0.80;;;0.30;;
35977;SDS011;22056;0.000;0.000;2023-12-20T06:36:52;2.03;;;0.40;;
35977;SDS011;22056;0.000;0.000;2023-12-20T06:39:18;1.05;;;0.40;;
35977;SDS011;22056;0.000;0.000;2023-12-20T06:41:44;1.52;;;0.32;;
35977;SDS011;22056;0.000;0.000;2023-12-20T06:44:10;1.20;;;0.40;;
35977;SDS011;22056;0.000;0.000;2023-12-20T06:46:36;1.05;;;0.40;;
35977;SDS011;22056;0.000;0.000;2023-12-20T06:49:02;2.45;;;0.35;;
35977;SDS011;22056;0.000;0.000;2023-12-20T06:51:28;1.17;;;0.50;;
35977;SDS011;22056;0.000;0.000;2023-12-20T06:53:56;2.30;;;0.45;;
35977;SDS011;22056;0.000;0.000;2023-12-20T06:56:22;0.60;;;0.35;;
35977;SDS011;22056;0.000;0.000;2023-12-20T06:58:48;0.93;;;0.40;;
35977;SDS011;22056;0.000;0.000;2023-12-20T07:01:14;1.55;;;0.40;;
35977;SDS011;22056;0.000;0.000;2023-12-20T07:03:41;2.55;;;0.60;;
35977;SDS011;22056;0.000;0.000;2023-12-20T07:06:07;1.85;;;0.60;;
35977;SDS011;22056;0.000;0.000;2023-12-20T07:08:33;2.85;;;0.60;;
35977;SDS011;22056;0.000;0.000;2023-12-20T07:11:00;2.67;;;0.60;;
35977;SDS011;22056;0.000;0.000;2023-12-20T07:13:26;2.17;;;0.50;;
35977;SDS011;22056;0.000;0.000;2023-12-20T07:15:52;0.85;;;0.65;;
35977;SDS011;22056;0.000;0.000;2023-12-20T07:18:18;2.17;;;0.52;;
35977;SDS011;22056;0.000;0.000;2023-12-20T07:20:44;4.90;;;0.70;;
35977;SDS011;22056;0.000;0.000;2023-12-20T07:23:11;3.00;;;0.98;;
35977;SDS011;22056;0.000;0.000;2023-12-20T07:25:37;2.17;;;0.63;;
35977;SDS011;22056;0.000;0.000;2023-12-20T07:28:03;1.85;;;0.60;;
35977;SDS011;22056;0.000;0.000;2023-12-20T07:30:30;1.42;;;0.57;;
35977;SDS011;22056;0.000;0.000;2023-12-20T07:32:56;1.38;;;0.70;;
35977;SDS011;22056;0.000;0.000;2023-12-20T07:35:25;2.60;;;0.47;;
35977;SDS011;22056;0.000;0.000;2023-12-20T07:37:51;1.75;;;0.50;;
35977;SDS011;22056;0.000;0.000;2023-12-20T07:40:17;2.88;;;0.50;;
35977;SDS011;22056;0.000;0.000;2023-12-20T07:42:43;2.33;;;0.70;;
35977;SDS011;22056;0.000;0.000;2023-12-20T07:45:09;1.50;;;0.65;;
35977;SDS011;22056;0.000;0.000;2023-12-20T07:47:36;4.38;;;0.93;;
35977;SDS011;22056;0.000;0.000;2023-12-20T07:50:03;2.83;;;0.70;;
35977;SDS011;22056;0.000;0.000;2023-12-20T07:52:29;2.72;;;0.73;;
35977;SDS011;22056;0.000;0.000;2023-12-20T07:54:55;2.75;;;0.60;;
35977;SDS011;22056;0.000;0.000;2023-12-20T07:57:21;2.42;;;0.80;;
35977;SDS011;22056;0.000;0.000;2023-12-20T07:59:48;3.58;;;0.73;;
35977;SDS011;22056;0.000;0.000;2023-12-20T08:02:14;2.53;;;0.65;;
35977;SDS011;22056;0.000;0.000;2023-12-20T08:04:40;2.25;;;0.70;;
35977;SDS011;22056;0.000;0.000;2023-12-20T08:07:06;1.73;;;0.60;;
35977;SDS011;22056;0.000;0.000;2023-12-20T08:09:32;2.15;;;0.50;;
35977;SDS011;22056;0.000;0.000;2023-12-20T08:12:01;3.38;;;0.60;;
35977;SDS011;22056;0.000;0.000;2023-12-20T08:14:27;3.70;;;0.60;;
35977;SDS011;22056;0.000;0.000;2023-12-20T08:16:54;1.40;;;0.70;;
35977;SDS011;22056;0.000;0.000;2023-12-20T08:19:20;2.67;;;0.80;;
35977;SDS011;22056;0.000;0.000;2023-12-20T08:21:46;3.80;;;0.65;;
35977;SDS011;22056;0.000;0.000;2023-12-20T08:24:13;1.27;;;0.50;;
35977;SDS011;22056;0.000;0.000;2023-12-20T08:26:40;2.15;;;0.70;;
35977;SDS011;22056;0.000;0.000;2023-12-20T08:29:06;4.55;;;0.60;;
35977;SDS011;22056;0.000;0.000;2023-12-20T08:31:32;1.95;;;0.50;;
35977;SDS011;22056;0.000;0.000;2023-12-20T08:33:58;2.30;;;0.70;;
35977;SDS011;22056;0.000;0.000;2023-12-20T08:36:24;3.95;;;0.77;;
35977;SDS011;22056;0.000;0.000;2023-12-20T08:38:50;2.83;;;0.70;;
35977;SDS011;22056;0.000;0.000;2023-12-20T08:41:17;3.90;;;0.85;;
35977;SDS011;22056;0.000;0.000;2023-12-20T08:43:43;4.30;;;0.60;;
35977;SDS011;22056;0.000;0.000;2023-12-20T08:46:09;1.67;;;0.57;;
35977;SDS011;22056;0.000;0.000;2023-12-20T08:48:36;3.28;;;0.70;;
35977;SDS011;22056;0.000;0.000;2023-12-20T08:51:03;2.28;;;0.63;;
35977;SDS011;22056;0.000;0.000;2023-12-20T08:53:29;1.88;;;0.65;;
35977;SDS011;22056;0.000;0.000;2023-12-20T08:55:55;2.60;;;0.60;;
35977;SDS011;22056;0.000;0.000;2023-12-20T08:58:26;2.30;;;0.60;;
35977;SDS011;22056;0.000;0.000;2023-12-20T09:00:52;1.63;;;0.60;;
35977;SDS011;22056;0.000;0.000;2023-12-20T09:03:18;1.80;;;0.70;;
35977;SDS011;22056;0.000;0.000;2023-12-20T09:05:44;3.83;;;0.52;;
35977;SDS011;22056;0.000;0.000;2023-12-20T09:08:10;3.65;;;0.70;;
35977;SDS011;22056;0.000;0.000;2023-12-20T09:10:37;4.07;;;0.80;;
35977;SDS011;22056;0.000;0.000;2023-12-20T09:13:03;1.05;;;0.60;;
35977;SDS011;22056;0.000;0.000;2023-12-20T09:15:30;2.33;;;0.85;;
35977;SDS011;22056;0.000;0.000;2023-12-20T09:17:56;1.40;;;0.60;;
35977;SDS011;22056;0.000;0.000;2023-12-20T09:20:22;4.38;;;0.70;;
35977;SDS011;22056;0.000;0.000;2023-12-20T09:22:48;0.98;;;0.40;;
35977;SDS011;22056;0.000;0.000;2023-12-20T09:25:14;1.75;;;0.50;;
35977;SDS011;22056;0.000;0.000;2023-12-20T09:27:42;1.77;;;0.63;;
35977;SDS011;22056;0.000;0.000;2023-12-20T09:30:09;2.15;;;0.73;;
35977;SDS011;22056;0.000;0.000;2023-12-20T09:32:35;1.58;;;0.60;;
35977;SDS011;22056;0.000;0.000;2023-12-20T09:35:01;1.60;;;0.60;;
35977;SDS011;22056;0.000;0.000;2023-12-20T09:37:28;3.38;;;0.80;;
35977;SDS011;22056;0.000;0.000;2023-12-20T09:39:54;1.42;;;0.40;;
35977;SDS011;22056;0.000;0.000;2023-12-20T09:44:59;4.93;;;0.73;;
35977;SDS011;22056;0.000;0.000;2023-12-20T09:47:28;2.00;;;0.70;;
35977;SDS011;22056;0.000;0.000;2023-12-20T09:49:54;3.22;;;0.90;;
35977;SDS011;22056;0.000;0.000;2023-12-20T09:52:21;0.85;;;0.50;;
35977;SDS011;22056;0.000;0.000;2023-12-20T09:54:48;1.65;;;0.50;;
35977;SDS011;22056;0.000;0.000;2023-12-20T09:57:15;4.28;;;0.77;;
35977;SDS011;22056;0.000;0.000;2023-12-20T09:59:41;2.85;;;0.57;;
35977;SDS011;22056;0.000;0.000;2023-12-20T10:02:08;2.75;;;0.60;;
35977;SDS011;22056;0.000;0.000;2023-12-20T10:04:40;1.90;;;0.70;;
35977;SDS011;22056;0.000;0.000;2023-12-20T10:07:09;1.73;;;0.68;;
35977;SDS011;22056;0.000;0.000;2023-12-20T10:09:36;1.27;;;0.70;;
35977;SDS011;22056;0.000;0.000;2023-12-20T10:12:02;3.83;;;0.70;;
35977;SDS011;22056;0.000;0.000;2023-12-20T10:14:30;1.95;;;0.50;;
35977;SDS011;22056;0.000;0.000;2023-12-20T10:17:03;1.90;;;0.60;;
35977;SDS011;22056;0.000;0.000;2023-12-20T10:19:29;2.55;;;0.80;;
35977;SDS011;22056;0.000;0.000;2023-12-20T10:21:56;2.63;;;0.60;;
35977;SDS011;22056;0.000;0.000;2023-12-20T10:24:22;2.08;;;0.52;;
35977;SDS011;22056;0.000;0.000;2023-12-20T10:26:48;4.10;;;0.70;;
35977;SDS011;22056;0.000;0.000;2023-12-20T10:29:30;5.68;;;0.80;;
35977;SDS011;22056;0.000;0.000;2023-12-20T10:31:57;1.67;;;0.60;;
35977;SDS011;22056;0.000;0.000;2023-12-20T10:34:23;2.47;;;0.80;;
35977;SDS011;22056;0.000;0.000;2023-12-20T10:36:49;1.65;;;0.60;;
35977;SDS011;22056;0.000;0.000;2023-12-20T10:39:16;2.40;;;0.90;;
35977;SDS011;22056;0.000;0.000;2023-12-20T10:41:45;1.88;;;0.60;;
35977;SDS011;22056;0.000;0.000;2023-12-20T10:44:11;1.40;;;0.50;;
35977;SDS011;22056;0.000;0.000;2023-12-20T10:46:39;1.40;;;0.60;;
35977;SDS011;22056;0.000;0.000;2023-12-20T10:49:06;1.75;;;0.50;;
35977;SDS011;22056;0.000;0.000;2023-12-20T10:51:33;4.07;;;0.60;;
35977;SDS011;22056;0.000;0.000;2023-12-20T10:54:00;3.90;;;0.63;;
35977;SDS011;22056;0.000;0.000;2023-12-20T10:56:26;1.55;;;0.50;;
35977;SDS011;22056;0.000;0.000;2023-12-20T10:58:55;1.58;;;0.63;;
35977;SDS011;22056;0.000;0.000;2023-12-20T11:01:22;2.75;;;0.55;;
35977;SDS011;22056;0.000;0.000;2023-12-20T11:03:50;1.85;;;0.60;;
35977;SDS011;22056;0.000;0.000;2023-12-20T11:06:27;3.17;;;0.80;;
35977;SDS011;22056;0.000;0.000;2023-12-20T11:13:55;1.52;;;0.70;;
35977;SDS011;22056;0.000;0.000;2023-12-20T11:16:24;1.42;;;0.60;;
35977;SDS011;22056;0.000;0.000;2023-12-20T11:18:50;1.95;;;0.82;;
35977;SDS011;22056;0.000;0.000;2023-12-20T11:21:17;3.60;;;0.82;;
35977;SDS011;22056;0.000;0.000;2023-12-20T11:23:43;3.17;;;0.70;;
35977;SDS011;22056;0.000;0.000;2023-12-20T11:26:10;1.77;;;0.57;;
35977;SDS011;22056;0.000;0.000;2023-12-20T11:28:36;2.55;;;0.85;;
35977;SDS011;22056;0.000;0.000;2023-12-20T11:31:02;2.35;;;0.65;;
35977;SDS011;22056;0.000;0.000;2023-12-20T11:33:35;2.40;;;0.70;;
35977;SDS011;22056;0.000;0.000;2023-12-20T11:36:02;4.15;;;0.90;;
35977;SDS011;22056;0.000;0.000;2023-12-20T11:38:37;3.10;;;0.60;;
35977;SDS011;22056;0.000;0.000;2023-12-20T11:41:05;1.75;;;0.70;;
35977;SDS011;22056;0.000;0.000;2023-12-20T11:43:32;2.85;;;0.70;;
35977;SDS011;22056;0.000;0.000;2023-12-20T11:46:08;2.55;;;0.88;;
35977;SDS011;22056;0.000;0.000;2023-12-20T11:48:36;3.10;;;0.70;;
35977;SDS011;22056;0.000;0.000;2023-12-20T11:51:08;2.58;;;0.68;;
35977;SDS011;22056;0.000;0.000;2023-12-20T11:53:35;2.13;;;0.55;;
35977;SDS011;22056;0.000;0.000;2023-12-20T11:56:02;2.20;;;0.68;;
35977;SDS011;22056;0.000;0.000;2023-12-20T11:58:29;0.82;;;0.40;;
35977;SDS011;22056;0.000;0.000;2023-12-20T12:00:55;5.15;;;0.80;;
35977;SDS011;22056;0.000;0.000;2023-12-20T12:03:22;2.17;;;0.70;;
35977;SDS011;22056;0.000;0.000;2023-12-20T12:05:49;3.15;;;0.60;;
35977;SDS011;22056;0.000;0.000;2023-12-20T12:08:15;2.45;;;0.68;;
35977;SDS011;22056;0.000;0.000;2023-12-20T12:10:42;1.63;;;0.50;;
35977;SDS011;22056;0.000;0.000;2023-12-20T12:13:08;2.55;;;0.70;;
35977;SDS011;22056;0.000;0.000;2023-12-20T12:15:35;2.38;;;0.70;;
35977;SDS011;22056;0.000;0.000;2023-12-20T12:18:01;1.55;;;0.60;;
35977;SDS011;22056;0.000;0.000;2023-12-20T12:20:27;2.47;;;0.93;;
35977;SDS011;22056;0.000;0.000;2023-12-20T12:22:57;4.00;;;0.70;;
35977;SDS011;22056;0.000;0.000;2023-12-20T12:25:24;1.20;;;0.70;;
35977;SDS011;22056;0.000;0.000;2023-12-20T12:27:50;1.98;;;0.70;;
35977;SDS011;22056;0.000;0.000;2023-12-20T12:30:17;3.63;;;0.80;;
35977;SDS011;22056;0.000;0.000;2023-12-20T12:32:44;1.60;;;0.60;;
35977;SDS011;22056;0.000;0.000;2023-12-20T12:35:10;2.28;;;0.60;;
35977;SDS011;22056;0.000;0.000;2023-12-20T12:37:37;1.88;;;0.47;;
35977;SDS011;22056;0.000;0.000;2023-12-20T12:40:09;1.55;;;0.55;;
35977;SDS011;22056;0.000;0.000;2023-12-20T12:42:35;2.45;;;0.70;;
35977;SDS011;22056;0.000;0.000;2023-12-20T12:45:02;1.60;;;0.60;;
35977;SDS011;22056;0.000;0.000;2023-12-20T12:47:28;2.63;;;0.70;;
35977;SDS011;22056;0.000;0.000;2023-12-20T12:49:54;0.80;;;0.50;;
35977;SDS011;22056;0.000;0.000;2023-12-20T12:52:20;1.33;;;0.40;;
35977;SDS011;22056;0.000;0.000;2023-12-20T12:54:46;1.58;;;0.50;;
35977;SDS011;22056;0.000;0.000;2023-12-20T12:57:13;0.93;;;0.60;;
35977;SDS011;22056;0.000;0.000;2023-12-20T12:59:41;2.25;;;0.60;;
35977;SDS011;22056;0.000;0.000;2023-12-20T13:02:08;2.00;;;0.60;;
35977;SDS011;22056;0.000;0.000;2023-12-20T13:04:34;2.10;;;0.52;;
35977;SDS011;22056;0.000;0.000;2023-12-20T13:07:00;3.00;;;0.90;;
35977;SDS011;22056;0.000;0.000;2023-12-20T13:09:26;1.10;;;0.60;;
35977;SDS011;22056;0.000;0.000;2023-12-20T13:11:53;1.25;;;0.60;;
35977;SDS011;22056;0.000;0.000;2023-12-20T13:14:19;1.50;;;0.73;;
35977;SDS011;22056;0.000;0.000;2023-12-20T13:16:45;2.80;;;0.82;;
35977;SDS011;22056;0.000;0.000;2023-12-20T13:19:11;1.48;;;0.73;;
35977;SDS011;22056;0.000;0.000;2023-12-20T13:21:37;2.05;;;0.63;;
35977;SDS011;22056;0.000;0.000;2023-12-20T13:24:05;1.90;;;0.57;;
35977;SDS011;22056;0.000;0.000;2023-12-20T13:26:31;2.08;;;0.60;;
35977;SDS011;22056;0.000;0.000;2023-12-20T13:28:57;2.85;;;1.13;;
35977;SDS011;22056;0.000;0.000;2023-12-20T13:31:24;2.17;;;0.52;;
35977;SDS011;22056;0.000;0.000;2023-12-20T13:33:50;1.42;;;0.70;;
35977;SDS011;22056;0.000;0.000;2023-12-20T13:36:17;2.72;;;0.93;;
35977;SDS011;22056;0.000;0.000;2023-12-20T13:38:44;1.10;;;0.70;;
35977;SDS011;22056;0.000;0.000;2023-12-20T13:41:10;2.20;;;0.70;;
35977;SDS011;22056;0.000;0.000;2023-12-20T13:43:37;3.00;;;0.70;;
35977;SDS011;22056;0.000;0.000;2023-12-20T13:46:03;2.35;;;0.63;;
35977;SDS011;22056;0.000;0.000;2023-12-20T13:48:29;1.75;;;0.60;;
35977;SDS011;22056;0.000;0.000;2023-12-20T13:50:55;1.63;;;0.60;;
35977;SDS011;22056;0.000;0.000;2023-12-20T13:53:22;3.45;;;0.73;;
35977;SDS011;22056;0.000;0.000;2023-12-20T13:55:48;1.42;;;0.52;;
35977;SDS011;22056;0.000;0.000;2023-12-20T13:58:14;4.20;;;1.10;;
35977;SDS011;22056;0.000;0.000;2023-12-20T14:00:41;2.97;;;0.93;;
35977;SDS011;22056;0.000;0.000;2023-12-20T14:03:07;0.85;;;0.45;;
35977;SDS011;22056;0.000;0.000;2023-12-20T14:05:35;4.57;;;0.70;;
35977;SDS011;22056;0.000;0.000;2023-12-20T14:08:01;3.05;;;0.70;;
35977;SDS011;22056;0.000;0.000;2023-12-20T14:10:27;1.52;;;0.52;;
35977;SDS011;22056;0.000;0.000;2023-12-20T14:12:54;2.38;;;0.50;;
35977;SDS011;22056;0.000;0.000;2023-12-20T14:15:20;2.58;;;0.70;;
35977;SDS011;22056;0.000;0.000;2023-12-20T14:17:46;4.30;;;0.70;;
35977;SDS011;22056;0.000;0.000;2023-12-20T14:20:13;1.73;;;0.65;;
35977;SDS011;22056;0.000;0.000;2023-12-20T14:22:39;2.22;;;0.75;;
35977;SDS011;22056;0.000;0.000;2023-12-20T14:25:12;3.78;;;0.93;;
35977;SDS011;22056;0.000;0.000;2023-12-20T14:27:39;3.08;;;0.70;;
35977;SDS011;22056;0.000;0.000;2023-12-20T14:30:06;1.85;;;0.55;;
35977;SDS011;22056;0.000;0.000;2023-12-20T14:32:34;2.08;;;0.60;;
35977;SDS011;22056;0.000;0.000;2023-12-20T14:35:03;0.93;;;0.47;;
35977;SDS011;22056;0.000;0.000;2023-12-20T14:37:30;1.05;;;0.55;;
35977;SDS011;22056;0.000;0.000;2023-12-20T14:39:56;3.63;;;0.65;;
35977;SDS011;22056;0.000;0.000;2023-12-20T14:42:22;3.13;;;1.13;;
35977;SDS011;22056;0.000;0.000;2023-12-20T14:44:48;4.13;;;0.80;;
35977;SDS011;22056;0.000;0.000;2023-12-20T14:47:17;3.47;;;0.60;;
35977;SDS011;22056;0.000;0.000;2023-12-20T14:49:43;1.88;;;0.70;;
35977;SDS011;22056;0.000;0.000;2023-12-20T14:52:10;4.20;;;0.63;;
35977;SDS011;22056;0.000;0.000;2023-12-20T14:54:37;0.98;;;0.40;;
35977;SDS011;22056;0.000;0.000;2023-12-20T14:57:03;1.52;;;0.50;;
35977;SDS011;22056;0.000;0.000;2023-12-20T14:59:29;2.58;;;0.70;;
35977;SDS011;22056;0.000;0.000;2023-12-20T15:01:55;2.05;;;0.60;;
35977;SDS011;22056;0.000;0.000;2023-12-20T15:04:21;3.03;;;0.60;;